createdAt,value
2022-11-04T00:01:33.848Z,29.30
2022-11-04T00:04:01.447Z,28.10
2022-11-04T00:06:28.767Z,29.27
2022-11-04T00:08:58.487Z,29.00
2022-11-04T00:11:46.450Z,31.52
2022-11-04T00:14:14.219Z,29.50
2022-11-04T00:17:01.093Z,34.67
2022-11-04T00:19:28.699Z,33.50
2022-11-04T00:22:15.014Z,27.30
2022-11-04T00:24:45.159Z,29.50
2022-11-04T00:27:33.416Z,33.85
2022-11-04T00:30:00.763Z,28.15
2022-11-04T00:32:46.761Z,35.13
2022-11-04T00:35:14.144Z,33.35
2022-11-04T00:37:43.616Z,30.83
2022-11-04T00:40:13.563Z,31.33
2022-11-04T00:42:41.048Z,29.73
2022-11-04T00:45:08.749Z,27.65
2022-11-04T00:47:36.085Z,33.03
2022-11-04T00:50:03.511Z,30.48
2022-11-04T00:52:31.118Z,28.90
2022-11-04T00:54:58.448Z,34.10
2022-11-04T00:57:25.767Z,31.98
2022-11-04T00:59:53.426Z,28.67
2022-11-04T01:02:20.940Z,29.42
2022-11-04T01:04:48.346Z,28.23
2022-11-04T01:07:15.980Z,26.83
2022-11-04T01:09:43.386Z,29.40
2022-11-04T01:12:10.723Z,28.25
2022-11-04T01:14:38.318Z,28.33
2022-11-04T01:17:05.840Z,28.95
2022-11-04T01:19:33.385Z,31.67
2022-11-04T01:22:00.996Z,32.30
2022-11-04T01:24:28.418Z,29.83
2022-11-04T01:26:55.947Z,30.77
2022-11-04T01:29:23.539Z,26.12
2022-11-04T01:31:50.870Z,33.33
2022-11-04T01:34:18.194Z,28.23
2022-11-04T01:36:45.798Z,29.90
2022-11-04T01:39:13.504Z,30.05
2022-11-04T01:41:41.059Z,28.20
2022-11-04T01:44:42.700Z,32.85
2022-11-04T01:47:22.426Z,25.95
2022-11-04T01:49:57.268Z,26.50
2022-11-04T01:52:30.332Z,27.85
2022-11-04T01:54:59.945Z,26.98
2022-11-04T01:57:37.152Z,30.17
2022-11-04T02:00:07.035Z,31.55
2022-11-04T02:02:50.071Z,30.23
2022-11-04T02:05:17.857Z,32.20
2022-11-04T02:07:47.767Z,30.15
2022-11-04T02:10:15.714Z,27.98
2022-11-04T02:12:52.317Z,28.00
2022-11-04T02:15:35.920Z,32.35
2022-11-04T02:18:30.969Z,26.77
2022-11-04T02:21:18.983Z,29.12
2022-11-04T02:23:59.757Z,29.42
2022-11-04T02:26:50.338Z,31.25
2022-11-04T02:29:55.407Z,29.35
2022-11-04T02:32:57.978Z,27.95
2022-11-04T02:35:58.675Z,32.13
2022-11-04T02:38:34.164Z,35.45
2022-11-04T02:41:11.728Z,33.88
2022-11-04T02:43:48.528Z,37.13
2022-11-04T02:46:35.016Z,32.92
2022-11-04T02:49:10.707Z,36.65
2022-11-04T02:51:56.768Z,34.05
2022-11-04T02:54:33.030Z,35.17
2022-11-04T02:57:02.056Z,34.95
2022-11-04T02:59:39.529Z,36.47
2022-11-04T03:02:10.939Z,31.30
2022-11-04T03:04:42.129Z,34.78
2022-11-04T03:12:17.009Z,36.08
2022-11-04T03:14:48.707Z,35.28
2022-11-04T03:17:31.982Z,38.00
2022-11-04T03:20:00.188Z,32.25
2022-11-04T03:22:35.896Z,36.50
2022-11-04T03:25:05.723Z,39.70
2022-11-04T03:27:45.864Z,35.65
2022-11-04T03:30:21.559Z,36.03
2022-11-04T03:33:18.101Z,33.35
2022-11-04T03:35:45.497Z,35.47
2022-11-04T03:38:13.354Z,32.65
2022-11-04T03:40:40.829Z,37.88
2022-11-04T03:43:15.189Z,35.08
2022-11-04T03:45:42.970Z,36.47
2022-11-04T03:48:10.427Z,31.25
2022-11-04T03:50:43.054Z,30.23
2022-11-04T03:53:12.380Z,31.45
2022-11-04T03:55:53.890Z,31.50
2022-11-04T03:58:38.078Z,37.08
2022-11-04T04:01:23.910Z,33.72
2022-11-04T04:03:58.441Z,32.58
2022-11-04T04:06:29.805Z,36.53
2022-11-04T04:09:03.206Z,34.80
2022-11-04T04:11:36.619Z,34.28
2022-11-04T04:14:05.897Z,34.28
2022-11-04T04:16:45.517Z,37.22
2022-11-04T04:19:21.324Z,38.45
2022-11-04T04:21:54.009Z,37.97
2022-11-04T04:24:42.307Z,42.65
2022-11-04T04:27:28.863Z,36.67
2022-11-04T04:29:57.543Z,38.30
2022-11-04T04:32:25.976Z,42.20
2022-11-04T04:35:16.054Z,38.75
2022-11-04T04:37:44.667Z,37.25
2022-11-04T04:40:34.755Z,39.20
2022-11-04T04:43:22.295Z,45.88
2022-11-04T04:45:51.760Z,41.90
2022-11-04T04:48:19.706Z,42.35
2022-11-04T04:50:49.086Z,49.15
2022-11-04T04:53:16.555Z,47.13
2022-11-04T04:55:44.130Z,50.80
2022-11-04T04:58:11.453Z,48.17
2022-11-04T05:00:38.788Z,44.85
2022-11-04T05:03:06.693Z,43.63
2022-11-04T05:05:34.246Z,49.28
2022-11-04T05:08:06.896Z,49.08
2022-11-04T05:10:34.992Z,51.80
2022-11-04T05:13:21.606Z,48.67
2022-11-04T05:15:49.223Z,48.40
2022-11-04T05:18:17.272Z,47.92
2022-11-04T05:20:44.706Z,51.45
2022-11-04T05:23:13.548Z,52.70
2022-11-04T05:25:41.854Z,51.65
2022-11-04T05:28:09.751Z,52.90
2022-11-04T05:30:38.436Z,47.15
2022-11-04T05:33:05.787Z,50.38
2022-11-04T05:35:33.627Z,47.90
2022-11-04T05:38:01.266Z,45.85
2022-11-04T05:40:28.612Z,55.03
2022-11-04T05:42:58.705Z,51.75
2022-11-04T05:45:27.227Z,46.70
2022-11-04T05:48:01.797Z,47.00
2022-11-04T05:53:01.239Z,51.55
2022-11-04T05:55:28.890Z,53.75
2022-11-04T05:57:58.079Z,50.10
2022-11-04T06:00:26.729Z,52.60
2022-11-04T06:02:57.344Z,49.30
2022-11-04T06:05:25.870Z,50.47
2022-11-04T06:07:53.691Z,51.22
2022-11-04T06:10:21.542Z,54.78
2022-11-04T06:12:49.014Z,56.08
2022-11-04T06:15:16.479Z,55.60
2022-11-04T06:17:44.068Z,54.40
2022-11-04T06:20:11.547Z,60.25
2022-11-04T06:22:38.877Z,56.88
2022-11-04T06:25:06.653Z,57.05
2022-11-04T06:27:33.993Z,57.95
2022-11-04T06:30:01.348Z,61.63
2022-11-04T06:32:28.937Z,60.90
2022-11-04T06:34:56.453Z,60.05
2022-11-04T06:37:23.818Z,55.28
2022-11-04T06:39:51.680Z,54.78
2022-11-04T06:42:19.071Z,55.60
2022-11-04T06:44:46.401Z,59.10
2022-11-04T06:47:14.013Z,53.10
2022-11-04T06:49:41.351Z,50.75
2022-11-04T06:52:08.670Z,53.63
2022-11-04T06:54:36.248Z,62.80
2022-11-04T06:57:03.699Z,52.72
2022-11-04T06:59:31.053Z,55.92
2022-11-04T07:01:58.792Z,53.63
2022-11-04T07:04:26.156Z,60.95
2022-11-04T07:06:53.473Z,50.90
2022-11-04T07:09:21.069Z,53.45
2022-11-04T07:11:48.411Z,48.97
2022-11-04T07:14:15.831Z,47.40
2022-11-04T07:16:43.440Z,53.78
2022-11-04T07:19:10.755Z,54.67
2022-11-04T07:21:38.094Z,57.22
2022-11-04T07:24:06.317Z,54.70
2022-11-04T07:26:33.662Z,54.63
2022-11-04T07:29:01.107Z,54.40
2022-11-04T07:31:28.741Z,57.35
2022-11-04T07:33:56.132Z,55.12
2022-11-04T07:36:23.592Z,52.83
2022-11-04T07:38:51.173Z,48.65
2022-11-04T07:41:18.582Z,53.58
2022-11-04T07:43:50.942Z,53.42
2022-11-04T07:46:19.498Z,54.72
2022-11-04T07:48:47.243Z,44.53
2022-11-04T07:51:16.485Z,47.67
2022-11-04T07:53:44.390Z,45.78
2022-11-04T07:56:12.760Z,48.87
2022-11-04T07:58:40.791Z,47.65
2022-11-04T08:01:14.678Z,48.58
2022-11-04T08:03:42.601Z,49.77
2022-11-04T08:06:11.336Z,47.67
2022-11-04T08:08:38.767Z,45.00
2022-11-04T08:11:18.228Z,49.95
2022-11-04T08:13:46.557Z,55.47
2022-11-04T08:16:16.605Z,54.05
2022-11-04T08:18:44.629Z,53.00
2022-11-04T08:21:12.573Z,51.65
2022-11-04T08:23:40.617Z,49.15
2022-11-04T08:26:14.014Z,50.35
2022-11-04T08:28:41.797Z,55.67
2022-11-04T08:31:18.787Z,46.83
2022-11-04T08:33:46.659Z,50.03
2022-11-04T08:36:26.147Z,51.50
2022-11-04T08:38:54.349Z,50.03
2022-11-04T08:41:29.210Z,50.75
2022-11-04T08:44:00.115Z,51.45
2022-11-04T08:46:29.318Z,50.83
2022-11-04T08:48:56.958Z,53.13
2022-11-04T08:51:26.000Z,50.60
2022-11-04T08:53:53.534Z,53.10
2022-11-04T08:56:30.055Z,50.45
2022-11-04T08:58:58.924Z,59.35
2022-11-04T09:01:30.048Z,51.33
2022-11-04T09:04:02.393Z,51.70
2022-11-04T09:06:34.491Z,58.00
2022-11-04T09:09:04.489Z,56.15
2022-11-04T09:11:35.154Z,55.53
2022-11-04T09:14:02.765Z,52.60
2022-11-04T09:16:31.184Z,53.00
2022-11-04T09:18:59.540Z,51.53
2022-11-04T09:21:27.478Z,50.15
2022-11-04T09:23:55.131Z,48.80
2022-11-04T09:26:24.387Z,56.58
2022-11-04T09:28:58.172Z,58.87
2022-11-04T09:31:27.858Z,54.40
2022-11-04T09:33:55.629Z,50.53
2022-11-04T09:36:23.743Z,53.58
2022-11-04T09:38:51.613Z,59.42
2022-11-04T09:41:21.711Z,51.42
2022-11-04T09:43:51.892Z,52.78
2022-11-04T09:46:19.926Z,53.65
2022-11-04T09:48:52.179Z,53.42
2022-11-04T09:51:47.813Z,51.10
2022-11-04T09:54:21.657Z,52.60
2022-11-04T09:56:51.281Z,49.80
2022-11-04T09:59:24.390Z,55.40
2022-11-04T10:02:21.838Z,56.92
2022-11-04T10:05:02.386Z,54.85
2022-11-04T10:07:47.784Z,53.10
2022-11-04T10:10:29.736Z,55.38
2022-11-04T10:13:15.188Z,62.40
2022-11-04T10:16:13.855Z,53.20
2022-11-04T10:18:47.444Z,59.85
2022-11-04T10:21:43.979Z,56.00
2022-11-04T10:24:33.188Z,61.47
2022-11-04T10:27:04.627Z,58.70
2022-11-04T10:29:40.452Z,58.45
2022-11-04T10:32:21.001Z,57.78
2022-11-04T10:34:55.091Z,59.95
2022-11-04T10:37:24.553Z,58.10
2022-11-04T10:39:53.876Z,57.72
2022-11-04T10:42:24.452Z,56.90
2022-11-04T10:44:52.526Z,62.78
2022-11-04T10:47:22.516Z,58.67
2022-11-04T10:50:26.369Z,55.92
2022-11-04T10:52:42.604Z,62.85
2022-11-04T10:55:29.904Z,56.80
2022-11-04T10:57:58.551Z,56.22
2022-11-04T11:00:37.325Z,54.15
2022-11-04T11:03:24.499Z,57.75
2022-11-04T11:05:53.056Z,57.70
2022-11-04T11:08:32.870Z,52.90
2022-11-04T11:11:00.238Z,50.35
2022-11-04T11:13:34.726Z,52.47
2022-11-04T11:16:27.798Z,48.67
2022-11-04T11:19:31.604Z,49.58
2022-11-04T11:21:59.148Z,53.67
2022-11-04T11:24:30.708Z,49.38
2022-11-04T11:27:04.048Z,51.42
2022-11-04T11:29:40.283Z,55.15
2022-11-04T11:32:43.299Z,54.65
2022-11-04T11:35:17.906Z,49.72
2022-11-04T11:37:48.933Z,49.38
2022-11-04T11:41:03.496Z,54.42
2022-11-04T11:43:32.577Z,52.55
2022-11-04T11:46:01.125Z,52.05
2022-11-04T11:48:35.484Z,54.28
2022-11-04T11:51:03.227Z,54.03
2022-11-04T11:53:30.623Z,57.60
2022-11-04T11:56:36.227Z,50.63
2022-11-04T12:02:56.054Z,53.00
2022-11-04T12:11:55.710Z,54.03
2022-11-04T12:14:44.831Z,57.92
2022-11-04T12:17:48.867Z,58.08
2022-11-04T12:20:26.302Z,62.33
2022-11-04T12:23:06.153Z,54.63
2022-11-04T12:25:40.372Z,57.40
2022-11-04T12:28:27.538Z,53.20
2022-11-04T12:31:19.020Z,54.28
2022-11-04T12:34:05.087Z,61.72
2022-11-04T12:37:06.698Z,54.38
2022-11-04T12:39:43.499Z,61.95
2022-11-04T12:42:46.786Z,57.83
2022-11-04T12:45:25.835Z,56.97
2022-11-04T12:47:55.527Z,54.38
2022-11-04T12:50:27.375Z,54.45
2022-11-04T12:53:35.446Z,57.85
2022-11-04T12:56:18.304Z,55.28
2022-11-04T12:59:04.019Z,55.63
2022-11-04T13:01:39.478Z,56.33
2022-11-04T13:04:14.168Z,52.72
2022-11-04T13:09:55.402Z,55.58
2022-11-04T13:12:41.298Z,52.80
2022-11-04T13:15:22.383Z,57.47
2022-11-04T13:17:54.128Z,56.28
2022-11-04T13:20:26.653Z,56.17
2022-11-04T13:23:02.989Z,56.92
2022-11-04T13:25:39.613Z,60.55
2022-11-04T13:28:19.765Z,57.78
2022-11-04T13:30:55.079Z,61.72
2022-11-04T13:33:48.598Z,58.05
2022-11-04T13:36:33.517Z,58.55
2022-11-04T13:44:26.660Z,59.92
2022-11-04T13:46:57.621Z,58.47
2022-11-04T13:49:32.341Z,53.72
2022-11-04T13:52:11.385Z,56.85
2022-11-04T13:54:42.546Z,56.05
2022-11-04T13:57:25.858Z,54.25
2022-11-04T14:00:13.011Z,49.17
2022-11-04T14:02:43.752Z,53.40
2022-11-04T14:05:34.622Z,53.63
2022-11-04T14:08:02.251Z,52.65
2022-11-04T14:10:45.176Z,56.80
2022-11-04T14:13:28.296Z,54.20
2022-11-04T14:16:18.821Z,54.70
2022-11-04T14:18:48.322Z,52.22
2022-11-04T14:21:17.594Z,61.45
2022-11-04T14:24:00.447Z,50.65
2022-11-04T14:26:48.973Z,53.22
2022-11-04T14:29:23.207Z,52.60
2022-11-04T14:31:55.656Z,53.00
2022-11-04T14:34:26.613Z,58.87
2022-11-04T14:37:02.244Z,52.22
2022-11-04T14:39:34.327Z,51.53
2022-11-04T14:42:04.689Z,50.80
2022-11-04T14:44:50.521Z,55.78
2022-11-04T14:47:19.505Z,53.33
2022-11-04T14:50:01.874Z,60.12
2022-11-04T14:53:10.872Z,51.50
2022-11-04T14:55:38.444Z,52.22
2022-11-04T14:58:29.784Z,50.42
2022-11-04T15:01:01.491Z,52.25
2022-11-04T15:09:28.495Z,49.75
2022-11-04T15:12:32.119Z,48.72
2022-11-04T15:15:00.087Z,47.15
2022-11-04T15:17:30.199Z,51.58
2022-11-04T15:20:00.370Z,45.05
2022-11-04T15:22:30.516Z,49.72
2022-11-04T15:25:03.483Z,50.78
2022-11-04T15:27:31.633Z,46.13
2022-11-04T15:30:02.182Z,46.03
2022-11-04T15:32:30.860Z,48.75
2022-11-04T15:34:59.696Z,52.80
2022-11-04T15:37:28.955Z,49.83
2022-11-04T15:39:57.989Z,50.78
2022-11-04T15:42:44.814Z,45.30
2022-11-04T15:45:27.780Z,47.55
2022-11-04T15:48:23.331Z,45.83
2022-11-04T15:51:01.932Z,46.08
2022-11-04T15:53:29.553Z,41.72
2022-11-04T15:55:56.970Z,47.78
2022-11-04T15:58:25.848Z,43.95
2022-11-04T16:00:55.300Z,47.65
2022-11-04T16:03:24.309Z,47.65
2022-11-04T16:06:06.391Z,45.20
2022-11-04T16:08:34.636Z,43.85
2022-11-04T16:11:28.498Z,44.00
2022-11-04T16:14:15.140Z,41.63
2022-11-04T16:16:48.996Z,39.50
2022-11-04T16:19:23.146Z,40.97
2022-11-04T16:22:31.333Z,40.88
2022-11-04T16:25:01.775Z,42.38
2022-11-04T16:27:31.249Z,40.85
2022-11-04T16:30:16.587Z,41.53
2022-11-04T16:35:17.595Z,42.08
2022-11-04T16:37:45.620Z,41.45
2022-11-04T16:40:13.721Z,39.58
2022-11-04T16:42:41.715Z,40.38
2022-11-04T16:45:18.484Z,43.80
2022-11-04T16:47:46.153Z,42.40
2022-11-04T16:50:15.827Z,42.30
2022-11-04T16:52:44.811Z,39.42
2022-11-04T16:55:13.913Z,40.72
2022-11-04T16:57:42.798Z,39.55
2022-11-04T17:00:18.352Z,36.38
2022-11-04T17:02:46.770Z,37.53
2022-11-04T17:05:15.098Z,39.42
2022-11-04T17:08:04.363Z,35.47
2022-11-04T17:10:30.652Z,36.75
2022-11-04T17:12:58.151Z,36.13
2022-11-04T17:15:26.175Z,35.45
2022-11-04T17:17:53.906Z,34.88
2022-11-04T17:20:21.805Z,33.03
2022-11-04T17:22:49.793Z,39.00
2022-11-04T17:25:23.219Z,39.00
2022-11-04T17:27:51.131Z,35.58
2022-11-04T17:30:20.154Z,34.60
2022-11-04T17:32:48.526Z,39.30
2022-11-04T17:35:17.555Z,37.88
2022-11-04T17:37:45.827Z,37.08
2022-11-04T17:40:18.672Z,34.22
2022-11-04T17:43:11.581Z,33.58
2022-11-04T17:45:41.810Z,36.65
2022-11-04T17:48:10.614Z,33.80
2022-11-04T17:50:39.709Z,34.42
2022-11-04T17:53:07.552Z,34.05
2022-11-04T17:55:41.381Z,36.25
2022-11-04T17:58:08.980Z,32.30
2022-11-04T18:00:36.701Z,33.10
2022-11-04T18:03:04.413Z,35.28
2022-11-04T18:05:31.750Z,33.22
2022-11-04T18:07:59.148Z,37.53
2022-11-04T18:10:27.135Z,39.45
2022-11-04T18:12:54.784Z,36.13
2022-11-04T18:15:22.277Z,40.22
2022-11-04T18:17:51.205Z,34.08
2022-11-04T18:20:19.187Z,36.53
2022-11-04T18:22:46.703Z,38.05
2022-11-04T18:25:14.831Z,38.65
2022-11-04T18:27:42.763Z,35.30
2022-11-04T18:30:11.340Z,37.85
2022-11-04T18:32:39.331Z,35.25
2022-11-04T18:35:08.467Z,35.97
2022-11-04T18:37:37.116Z,37.05
2022-11-04T18:40:05.663Z,35.60
2022-11-04T18:42:34.079Z,34.58
2022-11-04T18:45:02.497Z,39.13
2022-11-04T18:47:31.265Z,38.33
2022-11-04T18:49:59.267Z,35.17
2022-11-04T18:52:26.850Z,36.13
2022-11-04T18:54:54.978Z,32.25
2022-11-04T18:57:22.657Z,34.22
2022-11-04T18:59:50.596Z,33.00
2022-11-04T19:02:21.459Z,33.55
2022-11-04T19:04:50.675Z,32.42
2022-11-04T19:07:19.410Z,30.42
2022-11-04T19:09:48.426Z,34.35
2022-11-04T19:12:35.149Z,31.48
2022-11-04T19:15:07.676Z,31.33
2022-11-04T19:17:38.581Z,33.10
2022-11-04T19:20:12.282Z,32.83
2022-11-04T19:22:41.155Z,30.55
2022-11-04T19:25:10.249Z,29.10
2022-11-04T19:27:38.078Z,29.12
2022-11-04T19:30:06.721Z,33.17
2022-11-04T19:32:34.989Z,30.95
2022-11-04T19:35:03.008Z,33.40
2022-11-04T19:37:32.781Z,30.50
2022-11-04T19:40:02.155Z,29.37
2022-11-04T19:42:48.524Z,29.83
2022-11-04T19:45:16.826Z,31.92
2022-11-04T19:47:45.337Z,34.35
2022-11-04T19:50:15.082Z,31.27
2022-11-04T19:52:43.896Z,31.37
2022-11-04T19:55:12.164Z,34.05
2022-11-04T19:57:40.232Z,34.28
2022-11-04T20:00:09.291Z,32.90
2022-11-04T20:02:39.538Z,30.75
2022-11-04T20:05:08.031Z,34.17
2022-11-04T20:07:35.754Z,29.92
2022-11-04T20:10:03.815Z,33.97
2022-11-04T20:13:10.304Z,30.40
2022-11-04T20:15:38.387Z,31.50
2022-11-04T20:18:06.608Z,33.30
2022-11-04T20:20:34.178Z,31.73
2022-11-04T20:23:01.957Z,32.70
2022-11-04T20:25:29.997Z,34.47
2022-11-04T20:27:57.596Z,33.00
2022-11-04T20:30:25.533Z,32.00
2022-11-04T20:32:54.152Z,30.23
2022-11-04T20:35:22.262Z,32.03
2022-11-04T20:37:50.666Z,33.00
2022-11-04T20:40:19.320Z,33.00
2022-11-04T20:42:50.133Z,31.58
2022-11-04T20:45:19.629Z,32.17
2022-11-04T20:47:47.895Z,32.50
2022-11-04T20:50:15.588Z,37.25
2022-11-04T20:52:43.635Z,31.58
2022-11-04T20:55:12.261Z,32.40
2022-11-04T20:57:39.838Z,31.42
2022-11-04T21:00:09.281Z,38.85
2022-11-04T21:02:37.305Z,38.25
2022-11-04T21:05:05.244Z,34.67
2022-11-04T21:07:33.325Z,33.35
2022-11-04T21:10:00.910Z,40.85
2022-11-04T21:12:28.360Z,34.97
2022-11-04T21:14:55.976Z,40.95
2022-11-04T21:17:23.893Z,38.25
2022-11-04T21:19:51.607Z,41.47
2022-11-04T21:22:19.592Z,47.95
2022-11-04T21:24:50.656Z,44.35
2022-11-04T21:27:18.086Z,42.25
2022-11-04T21:29:46.189Z,40.92
2022-11-04T21:32:13.604Z,46.25
2022-11-04T21:34:40.943Z,45.80
2022-11-04T21:37:08.584Z,46.67
2022-11-04T21:39:36.023Z,42.25
2022-11-04T21:42:03.366Z,40.58
2022-11-04T21:44:31.314Z,44.70
2022-11-04T21:46:58.796Z,51.15
2022-11-04T21:49:26.478Z,49.85
2022-11-04T21:51:54.209Z,46.60
2022-11-04T21:54:21.550Z,55.92
2022-11-04T21:56:50.349Z,51.47
2022-11-04T21:59:18.609Z,59.45
2022-11-04T22:01:47.028Z,63.38
2022-11-04T22:04:15.147Z,54.92
2022-11-04T22:06:42.530Z,46.67
2022-11-04T22:09:09.900Z,49.30
2022-11-04T22:11:39.498Z,43.58
2022-11-04T22:14:08.420Z,36.97
2022-11-04T22:16:38.624Z,31.27
2022-11-04T22:19:08.508Z,27.33
2022-11-04T22:21:38.489Z,27.00
2022-11-04T22:24:06.368Z,23.35
2022-11-04T22:26:33.716Z,24.48
2022-11-04T22:29:01.048Z,18.75
2022-11-04T22:31:31.045Z,18.90
2022-11-04T22:33:59.798Z,14.43
2022-11-04T22:36:28.144Z,14.32
2022-11-04T22:38:56.290Z,19.55
2022-11-04T22:41:26.184Z,13.65
2022-11-04T22:43:53.529Z,18.50
2022-11-04T22:46:25.382Z,14.15
2022-11-04T22:48:52.998Z,15.85
2022-11-04T22:51:20.959Z,12.60
2022-11-04T22:53:56.631Z,12.60
2022-11-04T22:56:25.697Z,10.68
2022-11-04T22:58:54.379Z,9.88
2022-11-04T23:01:22.609Z,9.57
2022-11-04T23:03:51.783Z,10.68
2022-11-04T23:06:19.650Z,9.98
2022-11-04T23:08:47.016Z,8.07
